KLEB

Lebanon Municipal Airport

Lebanon, New Hampshire, USA
KLEB 241727Z 2418/2518 13006KT P6SM FEW025 FM242100 14007KT P6SM FEW090 FM250800 VRB02KT 1/4SM FG BKN002 FM251500 14008KT 1SM -RA OVC014
Issued Valid From Valid To
Sep-24 @ 17:27 UTC
(2 hours ago)
Sep-24 @ 18:00 UTC
(2 hours ago)
Sep-25 @ 18:00 UTC
(in 22 hours)
Sep-24 @ 18:00 to Sep-24 @ 21:00
KLEB 241727Z 2418/2518 13006KT P6SM FEW025
Wind Visibility Clouds
130° at 6 knots Greater than 6 miles
  • Few at 2,500' AGL
From Sep-24 @ 21:00 to Sep-25 @ 08:00
FM242100 14007KT P6SM FEW090
Wind Visibility Clouds
140° at 7 knots Greater than 6 miles
  • Few at 9,000' AGL
From Sep-25 @ 08:00 to Sep-25 @ 15:00
FM250800 VRB02KT 1/4SM FG BKN002
Wind Visibility Clouds Conditions
Variable at 2 knots 1/4 miles
  • Broken at 200' AGL
  • Fog
From Sep-25 @ 15:00 to Sep-25 @ 18:00
FM251500 14008KT 1SM -RA OVC014
Wind Visibility Clouds Conditions
140° at 8 knots 1 miles
  • Overcast at 1,400' AGL
  • Light Rain
KLEB 241727Z 2418/2518 13006KT P6SM FEW025 FM242100 14007KT P6SM FEW090 FM250800 VRB02KT 1/4SM FG BKN002 FM251500 14008KT 1SM -RA OVC014
Issued Sep-24 @ 17:27 UTC
(2 hours ago)
Valid From Sep-24 @ 18:00 UTC
(2 hours ago)
Valid To Sep-25 @ 18:00 UTC
(in 22 hours)
Sep-24 @ 18:00 - Sep-24 @ 21:00
Wind Visibility
130° at 6 knots Greater than 6 miles
Clouds
  • Few at 2,500' AGL
From Sep-24 @ 21:00 - Sep-25 @ 08:00
Wind Visibility
140° at 7 knots Greater than 6 miles
Clouds
  • Few at 9,000' AGL
From Sep-25 @ 08:00 - Sep-25 @ 15:00
Wind Visibility
Variable at 2 knots 1/4 miles
Clouds
  • Broken at 200' AGL
Conditions
  • Fog
From Sep-25 @ 15:00 - Sep-25 @ 18:00
Wind Visibility
140° at 8 knots 1 miles
Clouds
  • Overcast at 1,400' AGL
Conditions
  • Light Rain